Time;durP1;ratioP1;P1;durP2;ratioP2;P2;SDS_P1;SDS_P2;PMS_P1;PMS_P2;Temp;Humidity;BMP_temperature;BMP_pressure;BME280_temperature;BME280_humidity;BME280_pressure;Samples;Min_cycle;Max_cycle;Signal;HPM_P1;HPM_P2
2023/07/16 00:01:38;;;;;;;8.90;8.00;;;;;;;18.10;69.20;97114.98;107452;1245;95839;-86
2023/07/16 00:04:04;;;;;;;8.20;7.40;;;;;;;18.02;69.20;97116.68;107362;1245;109400;-86
2023/07/16 00:06:30;;;;;;;8.20;7.10;;;;;;;17.99;69.63;97116.73;107407;1239;96398;-87
2023/07/16 00:08:57;;;;;;;13.00;7.10;;;;;;;17.96;69.46;97114.27;107513;1244;96328;-85
2023/07/16 00:11:26;;;;;;;9.70;7.30;;;;;;;17.88;69.63;97113.83;107600;1251;97010;-84
2023/07/16 00:14:33;;;;;;;10.50;7.30;;;;;;;17.78;69.87;97112.63;107549;1244;101331;-76
2023/07/16 00:17:40;;;;;;;10.20;7.50;;;;;;;17.68;70.05;97107.48;106081;1257;98160;-71
2023/07/16 00:20:47;;;;;;;8.50;7.50;;;;;;;17.62;70.49;97105.64;105613;1258;96362;-70
2023/07/16 00:43:38;;;;;;;9.30;7.70;;;;;;;17.71;70.79;97103.08;104879;1263;642405;-71
2023/07/16 00:46:05;;;;;;;8.40;7.30;;;;;;;17.67;71.01;97100.65;106831;1247;124003;-72
2023/07/16 00:48:31;;;;;;;9.70;8.10;;;;;;;17.58;71.23;97101.45;107164;1249;95929;-71
2023/07/16 00:51:00;;;;;;;9.10;7.30;;;;;;;17.54;71.59;97095.09;106961;1253;100464;-71
2023/07/16 00:53:27;;;;;;;10.20;7.30;;;;;;;17.54;71.72;97090.33;107039;1247;98821;-73
2023/07/16 00:55:53;;;;;;;8.60;7.60;;;;;;;17.54;71.60;97091.86;107076;1247;95927;-73
2023/07/16 00:58:20;;;;;;;12.20;8.20;;;;;;;17.56;71.69;97093.48;107008;1250;95831;-71
2023/07/16 01:00:46;;;;;;;9.90;7.40;;;;;;;17.57;71.63;97089.44;107488;1245;95856;-74
2023/07/16 05:43:33;;;;;;;8.90;7.20;;;;;;;19.07;76.11;97078.14;104897;1267;644339;-82
2023/07/16 05:45:59;;;;;;;7.80;7.10;;;;;;;19.44;75.96;97078.81;106850;1250;169131;-82
2023/07/16 05:48:26;;;;;;;10.80;7.90;;;;;;;19.51;76.27;97076.31;107118;1249;95903;-82
2023/07/16 05:50:52;;;;;;;8.50;7.10;;;;;;;19.58;76.37;97073.95;106861;1260;100577;-82
2023/07/16 05:53:18;;;;;;;9.10;7.00;;;;;;;19.67;76.16;97073.71;107036;1249;95857;-84
2023/07/16 05:55:45;;;;;;;7.90;6.90;;;;;;;19.81;75.95;97068.64;108110;1237;95837;-84
2023/07/16 05:58:11;;;;;;;8.30;7.20;;;;;;;19.94;75.75;97075.39;108071;1237;95841;-83
2023/07/16 06:00:39;;;;;;;8.70;7.00;;;;;;;20.01;75.63;97076.90;108138;1237;101190;-76
2023/07/16 06:03:05;;;;;;;8.40;7.20;;;;;;;20.10;75.52;97078.52;108162;1234;98907;-75
2023/07/16 06:05:34;;;;;;;8.00;7.30;;;;;;;20.19;75.78;97081.21;108109;1234;95853;-75
2023/07/16 06:08:03;;;;;;;8.70;7.60;;;;;;;20.26;75.84;97079.27;108101;1233;97237;-75
2023/07/16 06:10:29;;;;;;;8.80;7.30;;;;;;;20.36;75.81;97080.06;107982;1246;107443;-76
2023/07/16 06:12:56;;;;;;;7.90;7.00;;;;;;;20.45;75.86;97077.45;108189;1238;95911;-76
2023/07/16 06:15:40;;;;;;;8.40;7.60;;;;;;;20.55;75.56;97079.14;107853;1238;95928;-80
2023/07/16 06:18:06;;;;;;;8.20;7.30;;;;;;;20.67;75.68;97083.63;108170;1238;96714;-88
2023/07/16 06:20:33;;;;;;;7.90;7.10;;;;;;;20.77;75.52;97082.69;107767;1243;95967;-89
2023/07/16 06:23:02;;;;;;;9.40;7.30;;;;;;;20.86;75.36;97079.34;108137;1237;95824;-90
2023/07/16 06:25:36;;;;;;;8.40;7.30;;;;;;;20.95;75.12;97077.08;108129;1238;96559;-89
2023/07/16 06:28:11;;;;;;;7.10;6.30;;;;;;;21.05;74.79;97070.26;108033;1240;98734;-85
2023/07/16 06:30:38;;;;;;;9.60;6.60;;;;;;;21.17;74.86;97072.80;108139;1237;95857;-87
2023/07/16 06:33:10;;;;;;;7.10;6.50;;;;;;;21.29;74.63;97073.60;107667;1241;95894;-87
2023/07/16 06:35:37;;;;;;;7.10;6.40;;;;;;;21.41;74.65;97073.49;107679;1249;99655;-89
2023/07/16 07:21:25;;;;;;;6.00;4.90;;;;;;;24.13;63.94;97079.34;106026;1267;95689;-73
2023/07/16 10:28:12;;;;;;;6.30;4.80;;;;;;;35.67;37.76;97134.35;105659;1264;95229;-88
2023/07/16 10:30:41;;;;;;;5.50;4.20;;;;;;;35.89;38.20;97134.89;106612;1251;96700;-87
2023/07/16 10:33:14;;;;;;;5.70;4.50;;;;;;;35.97;38.05;97137.40;106567;1252;98595;-86
2023/07/16 10:35:45;;;;;;;5.30;4.30;;;;;;;35.96;37.53;97131.76;106655;1252;99992;-91
2023/07/16 10:38:12;;;;;;;5.10;4.40;;;;;;;35.92;38.32;97130.59;106440;1256;99064;-86
2023/07/16 10:40:43;;;;;;;6.40;4.40;;;;;;;36.04;38.02;97129.38;106381;1252;95845;-87
2023/07/16 10:43:10;;;;;;;5.70;4.40;;;;;;;36.12;37.36;97128.33;106408;1252;96467;-87
2023/07/16 10:45:39;;;;;;;4.60;4.20;;;;;;;36.12;37.16;97127.68;106361;1252;96472;-78
2023/07/16 10:48:08;;;;;;;6.10;4.80;;;;;;;36.10;36.52;97129.52;106277;1256;100371;-76
2023/07/16 10:50:39;;;;;;;6.40;4.20;;;;;;;36.02;36.70;97129.90;105384;1260;98913;-77
2023/07/16 10:53:08;;;;;;;4.80;4.30;;;;;;;35.92;36.66;97126.41;105149;1267;95876;-76
2023/07/16 10:55:37;;;;;;;4.80;4.30;;;;;;;35.91;37.00;97125.92;106417;1263;95918;-78
2023/07/16 10:58:06;;;;;;;9.00;4.80;;;;;;;35.70;37.34;97123.39;105675;1266;99333;-76
2023/07/16 11:00:32;;;;;;;7.50;4.60;;;;;;;35.41;37.46;97121.89;104824;1270;101619;-76
2023/07/16 11:02:59;;;;;;;5.00;4.10;;;;;;;35.20;37.82;97119.25;104681;1273;97764;-75
2023/07/16 11:05:25;;;;;;;7.00;4.60;;;;;;;35.26;38.07;97125.29;104635;1270;95941;-76
2023/07/16 11:07:51;;;;;;;5.10;4.30;;;;;;;35.42;37.56;97125.67;105014;1272;96844;-75
2023/07/16 11:10:18;;;;;;;4.90;4.40;;;;;;;35.58;36.67;97123.55;104881;1264;100518;-75
2023/07/16 11:12:50;;;;;;;5.60;4.20;;;;;;;35.72;36.63;97121.34;105001;1266;96823;-75
2023/07/16 11:15:16;;;;;;;7.00;4.50;;;;;;;35.74;36.82;97118.96;105675;1260;96729;-76
2023/07/16 11:17:42;;;;;;;5.30;4.30;;;;;;;35.79;36.69;97120.89;105817;1257;96003;-74
2023/07/16 11:20:10;;;;;;;5.50;4.70;;;;;;;35.77;36.20;97125.19;105879;1259;97033;-75
2023/07/16 11:22:39;;;;;;;5.70;4.40;;;;;;;35.78;36.09;97123.59;106132;1252;96048;-75
2023/07/16 11:25:12;;;;;;;4.80;4.40;;;;;;;35.85;36.35;97122.89;106632;1248;96159;-75
2023/07/16 11:27:41;;;;;;;4.20;3.90;;;;;;;35.93;36.15;97126.02;106370;1254;97183;-75
2023/07/16 11:30:08;;;;;;;5.10;4.60;;;;;;;36.01;36.75;97121.14;106547;1257;96309;-77
2023/07/16 11:32:37;;;;;;;4.80;4.30;;;;;;;36.13;36.31;97116.37;107262;1245;95915;-76
2023/07/16 11:35:06;;;;;;;5.30;4.80;;;;;;;36.02;35.89;97115.14;106999;1249;100423;-79
2023/07/16 11:37:41;;;;;;;7.80;4.80;;;;;;;35.70;36.04;97120.84;107046;1252;100022;-79
2023/07/16 11:40:16;;;;;;;7.20;4.40;;;;;;;35.39;36.72;97122.59;106913;1245;96918;-78
2023/07/16 11:42:43;;;;;;;6.70;4.70;;;;;;;35.14;37.14;97116.20;106463;1256;96079;-77
2023/07/16 11:45:23;;;;;;;5.40;4.20;;;;;;;35.05;37.60;97114.78;106431;1251;96684;-77
2023/07/16 11:47:52;;;;;;;5.30;4.20;;;;;;;34.93;37.63;97116.69;106389;1251;100036;-75
2023/07/16 11:50:39;;;;;;;4.90;4.40;;;;;;;34.81;38.25;97117.28;105976;1262;98576;-75
2023/07/16 11:53:05;;;;;;;6.80;4.50;;;;;;;34.87;38.65;97116.75;105833;1260;95893;-81
2023/07/16 11:55:35;;;;;;;8.10;6.70;;;;;;;35.04;37.98;97111.40;105695;1259;96153;-89
2023/07/16 11:58:02;;;;;;;6.20;4.70;;;;;;;35.20;37.71;97111.01;105590;1260;99893;-82
2023/07/16 12:00:29;;;;;;;7.70;4.90;;;;;;;35.29;37.71;97110.35;105510;1257;96015;-84
2023/07/16 12:02:55;;;;;;;6.70;4.70;;;;;;;35.40;37.63;97111.79;105498;1271;96036;-81
2023/07/16 12:05:26;;;;;;;5.20;4.80;;;;;;;35.29;36.31;97109.38;105858;1254;96215;-83
2023/07/16 12:07:55;;;;;;;4.90;4.50;;;;;;;35.40;36.69;97110.09;106410;1254;96317;-82
2023/07/16 12:10:21;;;;;;;5.40;4.50;;;;;;;35.58;36.72;97106.01;106498;1255;99920;-81
2023/07/16 12:12:50;;;;;;;6.90;4.60;;;;;;;35.58;36.05;97108.48;106277;1256;95929;-80
2023/07/16 12:15:17;;;;;;;5.00;4.40;;;;;;;35.51;36.24;97109.98;106274;1254;98931;-79
2023/07/16 12:17:43;;;;;;;5.30;4.80;;;;;;;35.40;36.49;97112.42;106500;1264;97157;-87
2023/07/16 12:20:10;;;;;;;5.80;4.50;;;;;;;35.39;36.74;97111.92;106565;1254;95928;-88
2023/07/16 12:22:37;;;;;;;5.60;4.40;;;;;;;35.46;36.25;97108.02;106723;1253;96332;-84
2023/07/16 12:25:03;;;;;;;5.40;4.70;;;;;;;35.55;36.10;97103.55;106947;1248;95905;-85
2023/07/16 12:27:38;;;;;;;4.80;4.20;;;;;;;35.61;35.86;97101.88;106938;1250;96792;-85
2023/07/16 12:30:08;;;;;;;4.80;4.40;;;;;;;35.63;35.24;97097.80;106884;1245;96678;-84
2023/07/16 12:32:35;;;;;;;4.80;4.20;;;;;;;35.77;35.11;97094.70;106627;1255;99881;-78
2023/07/16 12:35:04;;;;;;;5.10;4.20;;;;;;;35.88;35.40;97094.28;106620;1253;96459;-78
2023/07/16 12:37:34;;;;;;;6.80;4.50;;;;;;;35.97;35.02;97094.77;106557;1264;98740;-76
2023/07/16 12:40:06;;;;;;;5.40;4.70;;;;;;;36.09;34.72;97093.14;106455;1251;96013;-77
2023/07/16 12:42:33;;;;;;;4.40;4.10;;;;;;;36.12;34.58;97093.09;106507;1254;97106;-76
2023/07/16 12:44:59;;;;;;;5.80;4.30;;;;;;;36.23;33.68;97090.33;106537;1251;96875;-77
2023/07/16 12:47:26;;;;;;;6.80;4.50;;;;;;;36.35;34.41;97091.09;106680;1254;95881;-77
2023/07/16 12:50:01;;;;;;;5.00;4.60;;;;;;;36.49;33.89;97089.20;106598;1250;96153;-77
2023/07/16 12:52:27;;;;;;;4.60;4.10;;;;;;;36.40;34.09;97091.45;106398;1253;95896;-82
2023/07/16 12:54:54;;;;;;;5.40;4.20;;;;;;;36.25;34.54;97092.60;106535;1254;96662;-84
2023/07/16 12:57:23;;;;;;;7.10;4.70;;;;;;;35.91;34.99;97092.54;106131;1257;97491;-84
2023/07/16 12:59:50;;;;;;;5.90;4.60;;;;;;;35.63;35.79;97091.87;106210;1259;96992;-87
2023/07/16 13:02:16;;;;;;;4.90;4.50;;;;;;;35.41;35.42;97089.98;106653;1259;96827;-76
2023/07/16 13:04:46;;;;;;;4.90;4.50;;;;;;;35.12;35.31;97087.01;107050;1251;97481;-75
2023/07/16 13:07:15;;;;;;;5.00;4.50;;;;;;;34.76;35.26;97085.58;107121;1247;96548;-75
2023/07/16 13:09:42;;;;;;;6.20;5.30;;;;;;;34.50;36.24;97086.02;106885;1251;100220;-85
2023/07/16 13:12:10;;;;;;;4.60;4.20;;;;;;;34.33;37.24;97083.48;107001;1250;96744;-85
2023/07/16 13:14:37;;;;;;;5.60;4.70;;;;;;;34.17;37.93;97087.56;106958;1250;96892;-76
2023/07/16 13:17:05;;;;;;;5.20;4.70;;;;;;;33.96;38.05;97088.23;107083;1251;96852;-76
2023/07/16 13:19:31;;;;;;;7.50;4.70;;;;;;;33.86;38.42;97085.16;106712;1245;96906;-75
2023/07/16 13:21:57;;;;;;;5.10;4.60;;;;;;;33.97;38.76;97086.57;107077;1251;97805;-76
2023/07/16 13:24:25;;;;;;;6.20;5.10;;;;;;;34.01;38.83;97089.60;107121;1251;97823;-76
2023/07/16 13:26:51;;;;;;;5.90;4.70;;;;;;;33.89;38.96;97090.83;107208;1251;97100;-76
2023/07/16 13:29:18;;;;;;;5.40;4.90;;;;;;;33.84;39.17;97091.36;107305;1248;96801;-76
2023/07/16 13:31:44;;;;;;;11.90;5.40;;;;;;;33.96;39.48;97091.59;107422;1244;97075;-84
2023/07/16 13:34:11;;;;;;;5.50;4.90;;;;;;;34.17;39.95;97090.36;107419;1241;97794;-85
2023/07/16 13:36:37;;;;;;;7.80;5.20;;;;;;;34.33;39.46;97085.16;107481;1244;96627;-90
2023/07/16 13:39:04;;;;;;;5.60;4.90;;;;;;;34.41;38.28;97086.73;107637;1242;96772;-83
2023/07/16 13:41:31;;;;;;;5.40;4.90;;;;;;;34.54;37.70;97079.27;107875;1241;96644;-85
2023/07/16 13:44:06;;;;;;;5.50;4.90;;;;;;;34.62;38.43;97088.06;108268;1246;96687;-84
2023/07/16 13:46:33;;;;;;;6.40;4.50;;;;;;;34.79;38.48;97089.79;107202;1247;98241;-83
2023/07/16 13:49:02;;;;;;;5.40;4.80;;;;;;;34.97;38.14;97087.91;107251;1254;96616;-83
2023/07/16 13:51:33;;;;;;;5.70;5.10;;;;;;;35.07;37.22;97085.89;107157;1255;100257;-81
2023/07/16 13:53:59;;;;;;;6.70;4.50;;;;;;;35.01;36.67;97084.61;107160;1259;98522;-85
2023/07/16 13:56:29;;;;;;;7.90;5.10;;;;;;;35.02;36.66;97086.78;106709;1252;98070;-84
2023/07/16 13:58:56;;;;;;;5.80;4.80;;;;;;;35.12;36.12;97085.08;106363;1256;97082;-84
2023/07/16 14:01:25;;;;;;;5.80;4.90;;;;;;;35.17;36.27;97090.17;106458;1255;97214;-78
2023/07/16 14:03:54;;;;;;;6.40;5.00;;;;;;;35.25;36.38;97088.07;105771;1263;100356;-78
2023/07/16 14:06:23;;;;;;;5.70;4.60;;;;;;;35.34;35.58;97085.33;105797;1260;99070;-78
2023/07/16 14:08:53;;;;;;;6.50;5.00;;;;;;;35.39;35.20;97089.15;105858;1260;97212;-78
2023/07/16 14:11:27;;;;;;;6.70;4.60;;;;;;;35.39;35.44;97089.31;105559;1266;98277;-77
2023/07/16 14:13:53;;;;;;;4.80;4.40;;;;;;;35.35;35.09;97089.18;105388;1262;101170;-79
2023/07/16 14:16:22;;;;;;;5.10;4.60;;;;;;;35.26;34.96;97084.33;105171;1266;96767;-79
2023/07/16 14:18:51;;;;;;;6.20;4.70;;;;;;;35.24;35.46;97089.90;105548;1257;100054;-79
2023/07/16 14:21:18;;;;;;;7.70;4.90;;;;;;;35.28;36.19;97088.93;105379;1271;97237;-79
2023/07/16 14:23:44;;;;;;;4.90;4.40;;;;;;;35.26;36.52;97087.52;105452;1260;96888;-81
2023/07/16 14:26:11;;;;;;;5.40;4.80;;;;;;;35.20;35.91;97086.88;106097;1260;97101;-80
2023/07/16 14:28:38;;;;;;;5.50;4.60;;;;;;;35.17;36.37;97086.58;106701;1248;97812;-79
2023/07/16 14:31:04;;;;;;;5.10;4.70;;;;;;;35.24;37.08;97085.90;106939;1244;97317;-79
2023/07/16 14:33:31;;;;;;;6.90;4.90;;;;;;;35.36;37.67;97085.04;107098;1248;97039;-79
2023/07/16 14:35:58;;;;;;;6.60;4.90;;;;;;;35.48;37.38;97080.13;107112;1247;96817;-79
2023/07/16 14:38:24;;;;;;;5.60;4.70;;;;;;;35.54;37.32;97083.73;107088;1245;97267;-80
2023/07/16 14:40:51;;;;;;;5.20;4.70;;;;;;;35.49;36.35;97080.55;107091;1252;97718;-79
2023/07/16 14:43:20;;;;;;;6.20;4.60;;;;;;;35.48;36.43;97077.48;107878;1241;96717;-80
2023/07/16 14:45:46;;;;;;;5.20;4.70;;;;;;;35.38;35.41;97069.59;107690;1244;100720;-82
2023/07/16 14:48:13;;;;;;;4.80;4.40;;;;;;;35.26;35.15;97063.32;107922;1240;97645;-82
2023/07/16 14:50:39;;;;;;;4.80;4.40;;;;;;;35.07;34.89;97060.40;107850;1244;97000;-80
2023/07/16 14:53:06;;;;;;;5.50;4.40;;;;;;;35.02;35.64;97059.54;107870;1243;96555;-81
2023/07/16 14:55:32;;;;;;;6.40;4.80;;;;;;;35.13;36.57;97056.86;107823;1246;101051;-80
2023/07/16 14:57:59;;;;;;;5.60;4.60;;;;;;;35.27;36.55;97053.31;107604;1239;97887;-81
2023/07/16 15:00:25;;;;;;;6.40;4.90;;;;;;;35.35;36.37;97053.42;107460;1244;97871;-78
2023/07/16 15:02:52;;;;;;;7.20;5.00;;;;;;;35.37;36.37;97042.47;106806;1260;97286;-78
2023/07/16 15:05:19;;;;;;;5.20;4.70;;;;;;;35.38;35.97;97044.41;106302;1254;100738;-75
2023/07/16 15:07:45;;;;;;;4.80;4.40;;;;;;;35.34;35.80;97041.96;105714;1257;98528;-80
2023/07/16 15:10:15;;;;;;;6.20;5.10;;;;;;;35.37;36.31;97039.20;105518;1257;97336;-80
2023/07/16 15:12:44;;;;;;;4.90;4.50;;;;;;;35.31;35.89;97033.58;105461;1259;97153;-76
2023/07/16 15:15:11;;;;;;;5.60;4.60;;;;;;;35.28;36.05;97033.29;105040;1267;97207;-75
2023/07/16 15:17:37;;;;;;;8.20;4.40;;;;;;;35.25;36.63;97035.49;104989;1267;96627;-77
2023/07/16 15:20:04;;;;;;;5.10;4.20;;;;;;;35.26;36.99;97028.85;105034;1265;97374;-78
2023/07/16 15:22:33;;;;;;;4.40;4.00;;;;;;;35.28;37.12;97027.05;105057;1263;99457;-76
2023/07/16 15:25:00;;;;;;;5.20;4.50;;;;;;;35.28;36.94;97024.00;105066;1263;97175;-75
2023/07/16 15:27:27;;;;;;;5.00;4.50;;;;;;;35.29;36.83;97019.20;105082;1262;96752;-74
2023/07/16 15:29:53;;;;;;;4.60;4.20;;;;;;;35.22;36.53;97017.34;105082;1266;96839;-74
2023/07/16 15:32:20;;;;;;;4.90;4.50;;;;;;;35.18;37.05;97019.36;105220;1265;96819;-76
2023/07/16 15:34:46;;;;;;;7.30;5.00;;;;;;;35.20;36.93;97018.19;105434;1267;97623;-75
2023/07/16 15:37:12;;;;;;;4.90;4.40;;;;;;;35.16;36.80;97016.36;105636;1260;102318;-75
2023/07/16 15:39:39;;;;;;;5.50;4.70;;;;;;;35.05;36.79;97011.34;106402;1255;98036;-74
2023/07/16 15:42:06;;;;;;;5.20;4.70;;;;;;;34.98;37.52;97011.81;107021;1251;97191;-74
2023/07/16 15:44:33;;;;;;;7.30;4.70;;;;;;;34.98;37.18;97010.21;107459;1250;96755;-74
2023/07/16 15:46:59;;;;;;;6.40;4.80;;;;;;;34.94;37.11;97012.95;107995;1234;97560;-81
2023/07/16 15:49:26;;;;;;;7.60;4.50;;;;;;;34.77;37.10;97019.43;107822;1239;100333;-74
2023/07/16 15:51:57;;;;;;;6.80;4.70;;;;;;;34.70;37.37;97021.38;107930;1236;96529;-80
2023/07/16 15:54:24;;;;;;;5.20;4.80;;;;;;;34.72;37.89;97025.58;107598;1238;96775;-80
2023/07/16 15:56:50;;;;;;;5.40;4.90;;;;;;;34.74;38.13;97023.28;107589;1244;96497;-79
2023/07/16 15:59:23;;;;;;;9.60;5.10;;;;;;;34.68;37.39;97020.71;107288;1241;96724;-79
2023/07/16 16:01:49;;;;;;;4.90;4.40;;;;;;;34.54;37.41;97022.75;107307;1245;100186;-86
2023/07/16 16:04:21;;;;;;;5.30;4.80;;;;;;;34.45;37.94;97025.25;107192;1245;97930;-85
2023/07/16 16:06:50;;;;;;;5.40;4.90;;;;;;;34.40;37.85;97024.70;107186;1245;97972;-79
2023/07/16 16:09:17;;;;;;;6.60;4.70;;;;;;;34.37;37.37;97033.05;107282;1241;97548;-83
2023/07/16 16:11:46;;;;;;;7.40;5.00;;;;;;;34.31;37.71;97033.49;107205;1248;97486;-87
2023/07/16 16:14:16;;;;;;;5.80;5.30;;;;;;;34.28;38.23;97031.30;107331;1245;101216;-85
2023/07/16 16:16:47;;;;;;;6.20;5.60;;;;;;;34.27;38.77;97027.05;107305;1249;98353;-73
2023/07/16 16:19:13;;;;;;;7.80;5.40;;;;;;;34.22;38.19;97027.48;106938;1248;97880;-73
2023/07/16 16:21:43;;;;;;;6.90;5.70;;;;;;;34.16;38.22;97031.87;107089;1258;96684;-73
2023/07/16 16:24:12;;;;;;;7.20;4.70;;;;;;;34.04;38.38;97039.80;106837;1251;101101;-75
2023/07/16 16:26:39;;;;;;;5.80;5.00;;;;;;;33.80;38.15;97044.16;106740;1252;99952;-74
2023/07/16 16:29:17;;;;;;;7.60;5.40;;;;;;;33.59;38.23;97049.48;106511;1251;98000;-75
2023/07/16 16:31:43;;;;;;;6.80;4.80;;;;;;;33.39;38.93;97050.23;106429;1255;97195;-74
2023/07/16 16:34:09;;;;;;;5.00;4.50;;;;;;;33.21;39.33;97047.25;106416;1254;96617;-73
2023/07/16 16:36:36;;;;;;;5.60;5.10;;;;;;;33.00;39.95;97046.31;106618;1254;97919;-73
2023/07/16 16:39:02;;;;;;;8.10;5.10;;;;;;;32.85;40.33;97044.06;106668;1254;96611;-73
2023/07/16 16:41:28;;;;;;;5.80;5.30;;;;;;;32.70;40.88;97039.63;106435;1251;97736;-74
2023/07/16 16:43:55;;;;;;;6.90;5.50;;;;;;;32.55;41.01;97040.38;106649;1250;97097;-73
2023/07/16 16:46:21;;;;;;;5.60;5.00;;;;;;;32.38;41.14;97037.34;106879;1250;97410;-79
2023/07/16 16:48:47;;;;;;;6.00;5.40;;;;;;;32.25;41.14;97046.20;109745;1247;94414;-74
2023/07/16 16:51:14;;;;;;;5.10;4.70;;;;;;;32.12;41.40;97048.16;106768;1253;96787;-73
2023/07/16 16:53:41;;;;;;;5.90;5.40;;;;;;;31.98;41.52;97054.09;107070;1249;96866;-73
2023/07/16 16:56:07;;;;;;;8.20;5.60;;;;;;;31.78;41.61;97064.41;107043;1248;97455;-74
2023/07/16 16:58:34;;;;;;;7.30;5.70;;;;;;;31.62;42.15;97069.85;107196;1254;97801;-73
2023/07/16 17:01:22;;;;;;;6.10;5.60;;;;;;;31.49;42.47;97068.84;107333;1251;97985;-74
2023/07/16 17:04:21;;;;;;;7.90;6.20;;;;;;;31.33;42.82;97063.73;107098;1242;98187;-72
2023/07/16 17:07:16;;;;;;;6.20;5.60;;;;;;;31.15;43.57;97055.17;106945;1248;101159;-73
2023/07/16 17:09:53;;;;;;;7.20;6.00;;;;;;;30.93;43.32;97052.90;106706;1251;100438;-74
2023/07/16 17:12:40;;;;;;;9.60;6.20;;;;;;;30.75;43.57;97059.35;106927;1250;98901;-73
2023/07/16 17:15:18;;;;;;;7.70;5.80;;;;;;;30.49;43.87;97057.77;106814;1251;96928;-73
2023/07/16 17:17:55;;;;;;;7.00;6.30;;;;;;;30.24;44.56;97045.59;106511;1256;97136;-83
2023/07/16 17:20:21;;;;;;;7.70;6.90;;;;;;;29.95;45.17;97042.36;106815;1248;100580;-81
2023/07/16 17:23:07;;;;;;;7.90;6.60;;;;;;;29.85;45.87;97047.80;107212;1241;97233;-79
2023/07/16 17:25:42;;;;;;;7.60;6.60;;;;;;;29.79;46.42;97057.69;107286;1245;98853;-80
2023/07/16 17:28:38;;;;;;;7.90;7.00;;;;;;;29.71;47.04;97067.89;107078;1248;96613;-79
2023/07/16 17:31:05;;;;;;;6.70;6.00;;;;;;;29.60;47.52;97072.75;106765;1244;97101;-75
2023/07/16 17:33:31;;;;;;;6.80;5.80;;;;;;;29.39;47.99;97082.94;106918;1257;96712;-75
2023/07/16 17:35:57;;;;;;;8.10;6.30;;;;;;;29.16;48.61;97079.91;106946;1257;96714;-74
2023/07/16 17:38:24;;;;;;;7.70;6.10;;;;;;;29.06;48.73;97082.71;106957;1245;97678;-75
2023/07/16 17:40:50;;;;;;;7.10;6.40;;;;;;;28.99;48.89;97082.27;107119;1253;97669;-75
2023/07/16 17:43:16;;;;;;;10.10;7.00;;;;;;;28.92;49.46;97080.95;107419;1247;96836;-75
2023/07/16 17:45:43;;;;;;;8.00;6.10;;;;;;;28.86;49.58;97085.65;107410;1247;96885;-83
2023/07/16 17:48:09;;;;;;;18.50;6.90;;;;;;;28.75;49.62;97093.69;107374;1243;96675;-84
2023/07/16 17:50:35;;;;;;;9.50;6.50;;;;;;;28.70;50.33;97105.00;107130;1248;97042;-83
2023/07/16 17:53:03;;;;;;;9.40;6.80;;;;;;;28.61;50.54;97106.45;107350;1248;97902;-84
2023/07/16 17:55:29;;;;;;;9.40;6.60;;;;;;;28.41;50.49;97107.86;107310;1256;98027;-83
2023/07/16 17:57:55;;;;;;;9.20;6.50;;;;;;;28.16;51.15;97111.46;107408;1254;96809;-83
2023/07/16 18:00:25;;;;;;;11.10;7.30;;;;;;;28.09;51.49;97111.58;107440;1254;96714;-82
2023/07/16 18:02:51;;;;;;;8.90;7.10;;;;;;;27.94;51.44;97112.67;107349;1244;102254;-77
2023/07/16 18:05:18;;;;;;;8.30;6.60;;;;;;;27.71;51.60;97111.33;107383;1245;98002;-75
2023/07/16 18:07:44;;;;;;;9.10;7.10;;;;;;;27.59;52.25;97119.39;107308;1245;96658;-75
2023/07/16 18:10:32;;;;;;;7.70;7.00;;;;;;;27.61;52.78;97124.05;108238;1237;96633;-79
2023/07/16 18:13:26;;;;;;;10.10;6.50;;;;;;;27.59;53.57;97131.40;108128;1242;101141;-79
2023/07/16 18:16:24;;;;;;;10.90;6.70;;;;;;;27.50;54.26;97138.36;107255;1248;100261;-82
2023/07/16 18:19:33;;;;;;;7.70;6.70;;;;;;;27.40;54.48;97136.42;106952;1259;98975;-81
2023/07/16 18:22:39;;;;;;;8.30;7.40;;;;;;;27.27;54.87;97135.95;105967;1258;96770;-82
2023/07/16 18:25:46;;;;;;;10.90;7.10;;;;;;;27.33;55.53;97143.48;105566;1260;98286;-72
2023/07/16 18:28:43;;;;;;;8.90;8.00;;;;;;;27.36;55.50;97155.60;104842;1273;101257;-74
2023/07/16 19:39:49;;;;;;;12.90;11.40;;;;;;;25.45;59.75;97221.48;105595;1260;96139;-82
2023/07/16 19:42:15;;;;;;;17.20;12.90;;;;;;;25.21;60.01;97217.59;106642;1255;96799;-85
2023/07/16 19:44:46;;;;;;;14.20;12.10;;;;;;;25.02;60.45;97217.15;106216;1258;95876;-81
2023/07/16 19:47:41;;;;;;;13.00;11.70;;;;;;;24.89;60.82;97213.64;105368;1261;99148;-76
2023/07/16 19:50:48;;;;;;;13.60;11.40;;;;;;;24.80;61.33;97212.94;105072;1266;98962;-75
2023/07/16 19:53:45;;;;;;;12.70;11.50;;;;;;;24.79;61.81;97220.47;104635;1275;96074;-72
2023/07/16 19:56:44;;;;;;;13.70;12.10;;;;;;;24.83;61.78;97221.16;104567;1270;97104;-74
2023/07/16 20:25:46;;;;;;;12.90;11.10;;;;;;;24.67;62.62;97252.94;104930;1272;96355;-83
2023/07/16 20:32:48;;;;;;;13.70;11.50;;;;;;;24.55;62.87;97254.90;101643;1293;642632;-82
2023/07/16 20:35:57;;;;;;;12.50;11.30;;;;;;;24.38;63.16;97262.81;103907;1273;96762;-79
2023/07/16 20:39:05;;;;;;;13.90;12.30;;;;;;;24.22;63.33;97274.05;103487;1281;96858;-81
2023/07/16 20:59:51;;;;;;;15.60;12.30;;;;;;;23.77;64.38;97286.42;101451;1296;638737;-81
2023/07/16 21:02:38;;;;;;;13.60;12.10;;;;;;;23.66;64.66;97283.71;103966;1275;96333;-76
2023/07/16 21:05:11;;;;;;;13.00;11.60;;;;;;;23.58;64.97;97281.56;103828;1278;96923;-82
2023/07/16 21:08:05;;;;;;;13.70;12.00;;;;;;;23.44;65.01;97282.84;103465;1283;99241;-82
2023/07/16 21:10:33;;;;;;;21.30;19.20;;;;;;;23.23;65.34;97281.52;102687;1289;100433;-82
2023/07/16 21:13:29;;;;;;;30.10;27.10;;;;;;;23.09;65.73;97282.54;98299;1293;5355814;-84
2023/07/16 21:16:38;;;;;;;33.90;30.50;;;;;;;23.08;66.19;97279.35;102481;1292;96042;-75
2023/07/16 21:19:36;;;;;;;29.80;26.70;;;;;;;23.11;66.37;97276.89;102003;1298;97081;-82
2023/07/16 21:22:04;;;;;;;24.70;22.10;;;;;;;23.13;66.37;97280.13;102605;1298;98623;-74
2023/07/16 21:24:32;;;;;;;21.70;19.60;;;;;;;23.13;66.52;97285.63;101723;1298;101480;-75
2023/07/16 21:27:00;;;;;;;20.00;18.30;;;;;;;23.12;66.45;97287.95;101814;1296;99083;-75
2023/07/16 21:29:27;;;;;;;19.10;16.60;;;;;;;23.11;66.59;97287.40;102660;1287;96248;-75
2023/07/16 21:31:55;;;;;;;18.50;16.50;;;;;;;23.08;66.68;97284.20;102622;1286;96519;-86
2023/07/16 21:34:23;;;;;;;16.80;15.30;;;;;;;23.01;66.83;97279.55;103247;1286;101217;-85
2023/07/16 21:58:28;;;;;;;22.60;18.40;;;;;;;22.12;68.33;97286.25;101699;1295;636005;-72
2023/07/16 22:00:55;;;;;;;22.60;17.80;;;;;;;22.06;68.96;97282.39;104145;1281;97292;-81
2023/07/16 22:07:58;;;;;;;15.40;13.90;;;;;;;22.18;69.02;97286.23;101950;1293;639753;-82
2023/07/16 22:11:55;;;;;;;14.70;13.10;;;;;;;22.17;69.09;97289.38;102010;1291;636240;-82
2023/07/16 22:14:22;;;;;;;14.90;13.40;;;;;;;22.12;69.16;97285.85;104349;1268;96707;-82
2023/07/16 22:18:34;;;;;;;16.20;14.60;;;;;;;22.00;69.23;97288.96;101549;1298;637000;-73
2023/07/16 22:21:02;;;;;;;16.30;13.30;;;;;;;21.91;69.29;97292.26;103952;1291;97073;-72
2023/07/16 22:29:20;;;;;;;15.70;14.30;;;;;;;22.00;69.14;97298.47;101621;1296;636285;-73
2023/07/16 22:34:19;;;;;;;15.90;13.70;;;;;;;21.86;69.93;97297.64;101858;1292;642424;-74
2023/07/16 22:41:10;;;;;;;15.40;13.90;;;;;;;21.60;70.58;97296.27;101967;1299;635972;-82
2023/07/16 22:44:09;;;;;;;15.20;13.60;;;;;;;21.60;70.75;97299.80;102964;1297;95949;-80
